UPSVAC Airport Information Service

Hong Kong International Airport (ZHUB)

ICAO: VHHH Country: Hong Kong
Latitude: 22.3089 Longitude: 113.915
Latest Arrival : UPS1323 (PGUM-VHHH) Latest Departure : UPS1325 (VHHH-EDDK)


WX CaptureLIVE
Data provided by noaa.gov | Fetched at 16:54:59

METAR : VHHH 281630Z 23008KT 9999 FEW035 30/23 Q0999 NOSIG

TAF : VHHH 281100Z 2812/2918 23010KT 9999 FEW015 SCT025 TX31/2906Z TN26/2822Z TEMPO 2818/2821 4000 SHRA FEW010CB SCT020 TEMPO 2821/2903 VRB15G30KT 2500 TSRA SHRA FEW010CB SCT020 BKN040 TEMPO 2903/2909 4000 SHRA FEW010CB SCT020 TEMPO 2915/2918 4000 SHRA FEW010CB SCT020


Runway Data for VHHH
Data provided by openaviationdata.com

Runway ID Mag Var Hdg Length Elevation Surface ILS Freq ILS Id ILS Slope
07L -2 72° 12431 ft 28 ft Asphalt 111.1 IZSL 3
07R -2 72° 12431 ft 28 ft Asphalt 109.3 ISR 3
25L -2 252° 12431 ft 28 ft Asphalt 108.9 IFL 3
25R -2 252° 12431 ft 28 ft Asphalt 110.9 ITFR 3

Hong Kong International Airport (ZHUB), Hong Kong
Use only for reference purposes



Not for navigational purposes.